Terminal Aerodrome Forecast
Issued by NWS

Home | Current Version | Previous Version | Text Only | Print | Product List | Glossary On
Versions: 1 2 3 4 5 6 7 8 9 10 11 12 13 14 15 16 17 18 19 20 21 22 23 24 25
000
FTUS41 KGYX 262320
TAFPSM
TAF
KPSM 262320Z 2700/2724 14008KT P6SM OVC040
     FM270500 14005KT 5SM -RADZ BKN015 OVC025
     FM270800 14004KT 2SM -RA BR BKN007 OVC015
     FM271200 08006KT 1 1/2SM -RADZ BR OVC006=

USA.gov is the U.S. government's official web portal to all federal, state and local government web resources and services.